Time;durP1;ratioP1;P1;durP2;ratioP2;P2;SDS_P1;SDS_P2;PMS_P1;PMS_P2;Temp;Humidity;BMP_temperature;BMP_pressure;BME280_temperature;BME280_humidity;BME280_pressure;Samples;Min_cycle;Max_cycle;Signal;HPM_P1;HPM_P2
2021/07/12 00:01:11;;;;;;;0.20;0.20;;;;;;;;;;4908095;29;20129;-93
2021/07/12 00:03:38;;;;;;;0.10;0.10;;;;;;;;;;4906476;29;20084;-95
2021/07/12 00:06:07;;;;;;;0.10;0.10;;;;;;;;;;4908282;29;20067;-93
2021/07/12 00:08:33;;;;;;;0.20;0.20;;;;;;;;;;4926085;29;20072;-94
2021/07/12 00:10:59;;;;;;;0.10;0.10;;;;;;;;;;4908215;29;20044;-94
2021/07/12 00:13:25;;;;;;;0.10;0.10;;;;;;;;;;4907582;29;20180;-94
2021/07/12 00:15:52;;;;;;;0.13;0.13;;;;;;;;;;4909216;29;20060;-94
2021/07/12 00:18:18;;;;;;;0.10;0.10;;;;;;;;;;4927391;29;20100;-95
2021/07/12 00:20:44;;;;;;;0.10;0.10;;;;;;;;;;4912432;29;20068;-96
2021/07/12 00:23:10;;;;;;;0.10;0.10;;;;;;;;;;4925003;29;20186;-95
2021/07/12 00:25:36;;;;;;;0.20;0.20;;;;;;;;;;4923423;29;20104;-93
2021/07/12 00:28:03;;;;;;;0.10;0.10;;;;;;;;;;4903860;29;20146;-93
2021/07/12 00:30:29;;;;;;;0.10;0.10;;;;;;;;;;4920133;29;20060;-93
2021/07/12 00:32:56;;;;;;;0.10;0.10;;;;;;;;;;4919134;29;20036;-95
2021/07/12 00:35:22;;;;;;;0.10;0.10;;;;;;;;;;4904124;29;20414;-94
2021/07/12 00:37:48;;;;;;;0.10;0.10;;;;;;;;;;4918768;29;20052;-92
2021/07/12 00:40:15;;;;;;;0.10;0.10;;;;;;;;;;4918527;29;20087;-92
2021/07/12 00:42:43;;;;;;;0.10;0.10;;;;;;;;;;4933706;29;20048;-90
2021/07/12 00:45:13;;;;;;;0.10;0.10;;;;;;;;;;4917623;29;20039;-92
2021/07/12 00:47:41;;;;;;;0.10;0.10;;;;;;;;;;4917464;29;20044;-91
2021/07/12 00:50:07;;;;;;;0.10;0.10;;;;;;;;;;4917412;29;20044;-91
2021/07/12 00:52:33;;;;;;;0.10;0.10;;;;;;;;;;4917441;29;20131;-92
2021/07/12 00:54:59;;;;;;;0.10;0.10;;;;;;;;;;4917480;29;20044;-92
2021/07/12 00:57:26;;;;;;;0.10;0.10;;;;;;;;;;4917585;29;20036;-93
2021/07/12 00:59:52;;;;;;;0.10;0.10;;;;;;;;;;4917588;29;20044;-93
2021/07/12 01:02:18;;;;;;;0.15;0.15;;;;;;;;;;4901832;29;20048;-92
2021/07/12 01:04:44;;;;;;;0.10;0.10;;;;;;;;;;4917543;29;20036;-92
2021/07/12 01:07:10;;;;;;;0.10;0.10;;;;;;;;;;4933033;29;20040;-92
2021/07/12 01:09:37;;;;;;;0.20;0.20;;;;;;;;;;4917538;29;20075;-92
2021/07/12 01:12:08;;;;;;;0.20;0.20;;;;;;;;;;4901426;29;20065;-91
2021/07/12 01:15:00;;;;;;;0.10;0.10;;;;;;;;;;4917243;29;20040;-92
2021/07/12 01:17:32;;;;;;;0.20;0.20;;;;;;;;;;4915082;29;20516;-92
2021/07/12 01:20:23;;;;;;;0.10;0.10;;;;;;;;;;4917410;29;20072;-92
2021/07/12 01:22:49;;;;;;;0.10;0.10;;;;;;;;;;4931885;29;20051;-92
2021/07/12 01:25:15;;;;;;;0.10;0.10;;;;;;;;;;4917113;29;20124;-92
2021/07/12 01:28:13;;;;;;;0.10;0.10;;;;;;;;;;4917923;29;20098;-92
2021/07/12 01:30:49;;;;;;;0.10;0.10;;;;;;;;;;4896029;29;20063;-91
2021/07/12 01:33:18;;;;;;;0.10;0.10;;;;;;;;;;4932487;29;20047;-92
2021/07/12 01:35:57;;;;;;;0.63;0.20;;;;;;;;;;4916824;29;20036;-92
2021/07/12 01:38:41;;;;;;;0.10;0.10;;;;;;;;;;4900672;29;20064;-93
2021/07/12 01:41:14;;;;;;;0.10;0.10;;;;;;;;;;4916747;29;20091;-92
2021/07/12 01:44:00;;;;;;;0.10;0.10;;;;;;;;;;4932230;29;20040;-93
2021/07/12 01:46:28;;;;;;;0.10;0.10;;;;;;;;;;4897084;29;20095;-93
2021/07/12 01:48:58;;;;;;;0.10;0.10;;;;;;;;;;4916940;29;20048;-92
2021/07/12 01:51:50;;;;;;;0.63;0.20;;;;;;;;;;4900973;29;20040;-93
2021/07/12 01:54:22;;;;;;;0.10;0.10;;;;;;;;;;4916710;29;20099;-94
2021/07/12 01:56:57;;;;;;;0.10;0.10;;;;;;;;;;4900936;29;20040;-94
2021/07/12 01:59:39;;;;;;;0.10;0.10;;;;;;;;;;4901191;29;20056;-94
2021/07/12 02:02:05;;;;;;;0.10;0.10;;;;;;;;;;4916488;29;20043;-94
2021/07/12 02:04:31;;;;;;;0.10;0.10;;;;;;;;;;4900835;29;20051;-94
2021/07/12 02:06:58;;;;;;;0.20;0.20;;;;;;;;;;4916566;29;20159;-94
2021/07/12 02:09:24;;;;;;;0.10;0.10;;;;;;;;;;4900872;29;20056;-94
2021/07/12 02:11:50;;;;;;;0.10;0.10;;;;;;;;;;4916112;29;20060;-94
2021/07/12 02:14:17;;;;;;;0.20;0.20;;;;;;;;;;4900843;29;20126;-94
2021/07/12 02:16:43;;;;;;;0.10;0.10;;;;;;;;;;4916309;29;20040;-94
2021/07/12 02:19:09;;;;;;;0.10;0.10;;;;;;;;;;4916712;29;20119;-95
2021/07/12 02:21:36;;;;;;;0.10;0.10;;;;;;;;;;4900979;29;20140;-94
2021/07/12 02:24:02;;;;;;;0.10;0.10;;;;;;;;;;4916752;29;20043;-94
2021/07/12 02:26:29;;;;;;;0.10;0.10;;;;;;;;;;4932894;29;20048;-92
2021/07/12 02:28:55;;;;;;;0.20;0.20;;;;;;;;;;4916137;29;20043;-93
2021/07/12 02:31:21;;;;;;;0.10;0.10;;;;;;;;;;4900550;29;20048;-92
2021/07/12 02:33:47;;;;;;;0.10;0.10;;;;;;;;;;4915429;29;20073;-92
2021/07/12 02:36:13;;;;;;;0.10;0.10;;;;;;;;;;4915611;29;20104;-91
2021/07/12 02:38:39;;;;;;;0.10;0.10;;;;;;;;;;4918515;29;20122;-91
2021/07/12 02:41:05;;;;;;;0.20;0.20;;;;;;;;;;4918814;29;20032;-91
2021/07/12 02:43:32;;;;;;;0.10;0.10;;;;;;;;;;4918698;29;20103;-91
2021/07/12 02:46:01;;;;;;;0.20;0.20;;;;;;;;;;4918934;29;20044;-91
2021/07/12 02:48:28;;;;;;;0.20;0.20;;;;;;;;;;4918475;29;20460;-91
2021/07/12 02:50:57;;;;;;;0.10;0.10;;;;;;;;;;4923359;29;20038;-92
2021/07/12 02:53:29;;;;;;;0.10;0.10;;;;;;;;;;4904269;29;20412;-93
2021/07/12 02:55:56;;;;;;;0.10;0.10;;;;;;;;;;4918981;29;20114;-93
2021/07/12 02:58:22;;;;;;;0.10;0.10;;;;;;;;;;4903388;29;20107;-93
2021/07/12 03:00:48;;;;;;;0.20;0.20;;;;;;;;;;4918661;29;20035;-94
2021/07/12 03:03:14;;;;;;;0.10;0.10;;;;;;;;;;4918980;29;20483;-94
2021/07/12 03:05:40;;;;;;;0.20;0.20;;;;;;;;;;4903246;29;20054;-94
2021/07/12 03:08:08;;;;;;;0.10;0.10;;;;;;;;;;4903498;29;20071;-94
2021/07/12 03:10:45;;;;;;;0.10;0.10;;;;;;;;;;4903438;29;20044;-93
2021/07/12 03:13:15;;;;;;;0.20;0.20;;;;;;;;;;4918585;29;20062;-93
2021/07/12 03:15:42;;;;;;;0.10;0.10;;;;;;;;;;4903359;29;20051;-94
2021/07/12 03:18:10;;;;;;;0.10;0.10;;;;;;;;;;4918738;29;20411;-94
2021/07/12 03:20:37;;;;;;;0.10;0.10;;;;;;;;;;4903368;29;20062;-94
2021/07/12 03:23:03;;;;;;;0.30;0.30;;;;;;;;;;4903037;29;20456;-93
2021/07/12 03:25:32;;;;;;;0.20;0.20;;;;;;;;;;4902711;29;20166;-94
2021/07/12 03:27:58;;;;;;;0.10;0.10;;;;;;;;;;4918404;29;20453;-92
2021/07/12 03:30:25;;;;;;;0.10;0.10;;;;;;;;;;4918609;29;20488;-93
2021/07/12 03:32:51;;;;;;;0.10;0.10;;;;;;;;;;4918473;29;20115;-92
2021/07/12 03:35:17;;;;;;;0.10;0.10;;;;;;;;;;4903083;29;20082;-92
2021/07/12 03:37:43;;;;;;;0.10;0.10;;;;;;;;;;4918225;29;20067;-92
2021/07/12 03:40:10;;;;;;;0.17;0.17;;;;;;;;;;4918612;29;20036;-92
2021/07/12 03:42:37;;;;;;;0.10;0.10;;;;;;;;;;4918494;29;20035;-92
2021/07/12 03:45:05;;;;;;;0.10;0.10;;;;;;;;;;4919049;29;20043;-92
2021/07/12 03:47:35;;;;;;;0.10;0.10;;;;;;;;;;4937734;29;20159;-93
2021/07/12 03:50:19;;;;;;;0.30;0.30;;;;;;;;;;4921932;29;20126;-92
2021/07/12 03:52:46;;;;;;;0.20;0.20;;;;;;;;;;4921605;29;20071;-93
2021/07/12 03:55:13;;;;;;;0.10;0.10;;;;;;;;;;4922089;29;20126;-92
2021/07/12 03:57:39;;;;;;;0.10;0.10;;;;;;;;;;4921825;29;20032;-93
2021/07/12 04:00:06;;;;;;;0.20;0.20;;;;;;;;;;4922124;29;20118;-93
2021/07/12 04:02:32;;;;;;;0.10;0.10;;;;;;;;;;4921644;29;20039;-92
2021/07/12 04:04:58;;;;;;;0.10;0.10;;;;;;;;;;4921787;29;20123;-93
2021/07/12 04:07:25;;;;;;;0.10;0.10;;;;;;;;;;4921338;29;20421;-93
2021/07/12 04:09:51;;;;;;;0.10;0.10;;;;;;;;;;4905975;29;20106;-93
2021/07/12 04:12:23;;;;;;;0.20;0.20;;;;;;;;;;4937357;29;20046;-93
2021/07/12 04:14:50;;;;;;;0.20;0.20;;;;;;;;;;4922219;29;20086;-93
2021/07/12 04:17:16;;;;;;;0.20;0.20;;;;;;;;;;4905963;29;20127;-93
2021/07/12 04:19:42;;;;;;;0.30;0.30;;;;;;;;;;4921550;29;20381;-92
2021/07/12 04:22:08;;;;;;;0.10;0.10;;;;;;;;;;4905906;29;20043;-93
2021/07/12 04:24:34;;;;;;;0.20;0.20;;;;;;;;;;4936984;29;20122;-93
2021/07/12 04:27:01;;;;;;;0.10;0.10;;;;;;;;;;4905600;29;20106;-92
2021/07/12 04:29:28;;;;;;;0.20;0.20;;;;;;;;;;4906216;29;20051;-92
2021/07/12 04:31:56;;;;;;;0.10;0.10;;;;;;;;;;4921529;29;20065;-92
2021/07/12 04:34:23;;;;;;;0.10;0.10;;;;;;;;;;4921424;29;20035;-92
2021/07/12 04:36:49;;;;;;;0.10;0.10;;;;;;;;;;4920819;29;20052;-92
2021/07/12 04:39:15;;;;;;;0.20;0.20;;;;;;;;;;4921065;29;20051;-93
2021/07/12 04:41:41;;;;;;;0.15;0.15;;;;;;;;;;4905528;29;20054;-93
2021/07/12 04:44:07;;;;;;;0.10;0.10;;;;;;;;;;4921126;29;20059;-93
2021/07/12 04:46:34;;;;;;;0.10;0.10;;;;;;;;;;4905152;29;20102;-93
2021/07/12 04:49:02;;;;;;;0.10;0.10;;;;;;;;;;4920976;29;20407;-93
2021/07/12 04:51:31;;;;;;;0.10;0.10;;;;;;;;;;4921501;29;20035;-93
2021/07/12 04:53:58;;;;;;;0.10;0.10;;;;;;;;;;4921362;29;20553;-93
2021/07/12 04:56:24;;;;;;;0.20;0.20;;;;;;;;;;4936087;29;20050;-93
2021/07/12 04:58:51;;;;;;;0.10;0.10;;;;;;;;;;4920649;29;20518;-94
2021/07/12 05:01:17;;;;;;;0.20;0.20;;;;;;;;;;4905220;29;20103;-93
2021/07/12 05:03:43;;;;;;;0.13;0.13;;;;;;;;;;4904730;29;20054;-93
2021/07/12 05:06:09;;;;;;;0.10;0.10;;;;;;;;;;4920336;29;20039;-93
2021/07/12 05:08:36;;;;;;;0.13;0.13;;;;;;;;;;4920522;29;20055;-93
2021/07/12 05:11:02;;;;;;;0.17;0.17;;;;;;;;;;4920613;29;20039;-92
2021/07/12 05:13:29;;;;;;;0.10;0.10;;;;;;;;;;4920331;29;20126;-93
2021/07/12 05:15:55;;;;;;;0.10;0.10;;;;;;;;;;4920639;29;20067;-91
2021/07/12 05:18:21;;;;;;;0.10;0.10;;;;;;;;;;4919828;29;20046;-92
2021/07/12 05:20:47;;;;;;;0.10;0.10;;;;;;;;;;4904546;29;20052;-91
2021/07/12 05:23:13;;;;;;;0.10;0.10;;;;;;;;;;4920474;29;20519;-91
2021/07/12 05:25:40;;;;;;;0.10;0.10;;;;;;;;;;4919963;29;20190;-92
2021/07/12 05:28:07;;;;;;;0.10;0.10;;;;;;;;;;4920039;29;20039;-92
2021/07/12 05:30:33;;;;;;;0.10;0.10;;;;;;;;;;4935892;29;20058;-92
2021/07/12 05:32:59;;;;;;;0.10;0.10;;;;;;;;;;4920682;29;20043;-92
2021/07/12 05:35:25;;;;;;;0.10;0.10;;;;;;;;;;4920063;29;20036;-92
2021/07/12 05:37:51;;;;;;;0.10;0.10;;;;;;;;;;4916434;29;20064;-92
2021/07/12 05:40:17;;;;;;;0.20;0.20;;;;;;;;;;4916767;29;20087;-93
2021/07/12 05:42:43;;;;;;;0.10;0.10;;;;;;;;;;4916788;29;20111;-92
2021/07/12 05:45:10;;;;;;;0.10;0.10;;;;;;;;;;4900948;29;20063;-94
2021/07/12 05:47:36;;;;;;;0.10;0.10;;;;;;;;;;4916119;29;20127;-92
2021/07/12 05:50:04;;;;;;;0.10;0.10;;;;;;;;;;4900916;29;20064;-92
2021/07/12 05:52:32;;;;;;;0.10;0.10;;;;;;;;;;4916490;29;20055;-90
2021/07/12 05:54:59;;;;;;;0.10;0.10;;;;;;;;;;4916289;29;20337;-92
2021/07/12 05:57:25;;;;;;;0.10;0.10;;;;;;;;;;4916083;29;20040;-91
2021/07/12 05:59:51;;;;;;;0.20;0.20;;;;;;;;;;4916130;29;20040;-91
2021/07/12 06:02:17;;;;;;;0.10;0.10;;;;;;;;;;4932015;29;20043;-90
2021/07/12 06:04:44;;;;;;;0.10;0.10;;;;;;;;;;4916416;29;20044;-92
2021/07/12 06:07:10;;;;;;;0.10;0.10;;;;;;;;;;4916199;29;20453;-91
2021/07/12 06:09:36;;;;;;;0.10;0.10;;;;;;;;;;4915667;29;20055;-89
2021/07/12 06:12:03;;;;;;;0.20;0.20;;;;;;;;;;4916787;29;20127;-94
2021/07/12 06:14:30;;;;;;;0.10;0.10;;;;;;;;;;4902091;29;20040;-96
2021/07/12 06:16:56;;;;;;;0.10;0.10;;;;;;;;;;4916385;29;20052;-94
2021/07/12 06:19:22;;;;;;;0.10;0.10;;;;;;;;;;4900851;29;20048;-94
2021/07/12 06:21:48;;;;;;;0.10;0.10;;;;;;;;;;4901759;29;20198;-94
2021/07/12 06:24:15;;;;;;;0.10;0.10;;;;;;;;;;4916141;29;20040;-93
2021/07/12 06:33:17;;;;;;;0.10;0.10;;;;;;;;;;4917470;29;20072;-96
2021/07/12 06:35:44;;;;;;;0.10;0.10;;;;;;;;;;4918883;29;20047;-96
2021/07/12 06:38:13;;;;;;;0.10;0.10;;;;;;;;;;4923489;29;20079;-96
2021/07/12 06:40:44;;;;;;;0.10;0.10;;;;;;;;;;4904215;29;20036;-96
2021/07/12 06:43:12;;;;;;;0.20;0.20;;;;;;;;;;4916945;29;20111;-96
2021/07/12 06:45:38;;;;;;;0.10;0.10;;;;;;;;;;4936909;29;20032;-96
2021/07/12 06:48:05;;;;;;;0.10;0.10;;;;;;;;;;4917399;29;20505;-95
2021/07/12 06:50:33;;;;;;;0.30;0.30;;;;;;;;;;4902736;29;20103;-96
2021/07/12 06:52:59;;;;;;;0.20;0.20;;;;;;;;;;4902559;29;20048;-96
2021/07/12 06:55:25;;;;;;;0.20;0.20;;;;;;;;;;4916982;29;20070;-95
2021/07/12 06:57:52;;;;;;;0.10;0.10;;;;;;;;;;4899950;29;20048;-93
2021/07/12 07:00:18;;;;;;;0.10;0.10;;;;;;;;;;4915422;29;20052;-93
2021/07/12 07:02:44;;;;;;;0.10;0.10;;;;;;;;;;4900249;29;20051;-93
2021/07/12 07:05:10;;;;;;;0.10;0.10;;;;;;;;;;4900282;29;20051;-93
2021/07/12 07:07:36;;;;;;;0.20;0.20;;;;;;;;;;4915891;29;20071;-93
2021/07/12 07:10:08;;;;;;;0.30;0.30;;;;;;;;;;4915710;29;20040;-93
2021/07/12 07:12:35;;;;;;;0.30;0.30;;;;;;;;;;4916123;29;20066;-93
2021/07/12 07:15:07;;;;;;;0.13;0.13;;;;;;;;;;4931509;29;20069;-92
2021/07/12 07:17:33;;;;;;;0.40;0.40;;;;;;;;;;4931381;29;20134;-92
2021/07/12 07:20:00;;;;;;;0.10;0.10;;;;;;;;;;4916296;29;20040;-92
2021/07/12 07:22:26;;;;;;;0.20;0.20;;;;;;;;;;4919608;29;20114;-91
2021/07/12 07:24:53;;;;;;;0.20;0.20;;;;;;;;;;4920633;29;20426;-91
2021/07/12 07:27:20;;;;;;;0.20;0.20;;;;;;;;;;4918975;29;20036;-94
2021/07/12 07:29:46;;;;;;;0.20;0.20;;;;;;;;;;4903498;29;20448;-91
2021/07/12 07:32:13;;;;;;;0.10;0.10;;;;;;;;;;4934403;29;20036;-93
2021/07/12 07:34:44;;;;;;;0.20;0.20;;;;;;;;;;4903458;29;20481;-92
2021/07/12 07:37:18;;;;;;;0.20;0.20;;;;;;;;;;4918742;29;20056;-92
2021/07/12 07:39:46;;;;;;;0.35;0.35;;;;;;;;;;4902706;29;20286;-92
2021/07/12 07:42:12;;;;;;;0.10;0.10;;;;;;;;;;4902922;29;20460;-91
2021/07/12 07:44:38;;;;;;;0.20;0.20;;;;;;;;;;4902706;29;20051;-94
2021/07/12 07:47:05;;;;;;;0.20;0.20;;;;;;;;;;4903187;29;20123;-93
2021/07/12 07:49:33;;;;;;;0.20;0.20;;;;;;;;;;4903546;29;20052;-93
2021/07/12 07:52:02;;;;;;;0.10;0.10;;;;;;;;;;4917031;29;20076;-91
2021/07/12 07:54:28;;;;;;;0.10;0.10;;;;;;;;;;4917726;29;20048;-91
2021/07/12 07:56:56;;;;;;;0.20;0.20;;;;;;;;;;4933885;29;20040;-93
2021/07/12 07:59:22;;;;;;;0.25;0.25;;;;;;;;;;4918206;29;20048;-94
2021/07/12 08:01:48;;;;;;;0.20;0.20;;;;;;;;;;4902690;29;20040;-92
2021/07/12 08:04:15;;;;;;;0.20;0.20;;;;;;;;;;4918131;29;20480;-93
2021/07/12 08:06:42;;;;;;;0.10;0.10;;;;;;;;;;4902565;29;20054;-92
2021/07/12 08:09:11;;;;;;;0.10;0.10;;;;;;;;;;4934316;29;20044;-94
2021/07/12 08:11:40;;;;;;;0.10;0.10;;;;;;;;;;4920012;29;20459;-93
2021/07/12 08:14:10;;;;;;;0.10;0.10;;;;;;;;;;4920364;29;20040;-96
2021/07/12 08:34:46;;;;;;;0.10;0.10;;;;;;;;;;4955179;29;20048;-94
2021/07/12 08:37:21;;;;;;;0.20;0.20;;;;;;;;;;4925998;29;20495;-91
2021/07/12 08:39:49;;;;;;;0.20;0.20;;;;;;;;;;4923994;29;20630;-92
2021/07/12 08:42:15;;;;;;;0.20;0.20;;;;;;;;;;4940107;29;20039;-92
2021/07/12 08:44:50;;;;;;;0.20;0.20;;;;;;;;;;4939299;28;20046;-94
2021/07/12 08:47:16;;;;;;;0.10;0.10;;;;;;;;;;4955845;29;20059;-90
2021/07/12 08:49:46;;;;;;;0.10;0.10;;;;;;;;;;4955384;29;20163;-92
2021/07/12 08:52:15;;;;;;;0.10;0.10;;;;;;;;;;4939669;29;20400;-92
2021/07/12 08:54:42;;;;;;;0.20;0.20;;;;;;;;;;4954871;28;20114;-89
2021/07/12 08:57:08;;;;;;;0.10;0.10;;;;;;;;;;4938551;28;20471;-90
2021/07/12 08:59:36;;;;;;;0.20;0.20;;;;;;;;;;4938729;29;20043;-91
2021/07/12 09:02:12;;;;;;;0.10;0.10;;;;;;;;;;4939152;29;20062;-90
2021/07/12 09:04:39;;;;;;;0.20;0.20;;;;;;;;;;4956105;28;20070;-90
2021/07/12 09:07:05;;;;;;;0.10;0.10;;;;;;;;;;4955979;28;20118;-91
2021/07/12 09:09:33;;;;;;;0.20;0.20;;;;;;;;;;4941985;29;20051;-96
2021/07/12 09:12:09;;;;;;;0.10;0.10;;;;;;;;;;4939951;29;20054;-91
2021/07/12 09:14:39;;;;;;;0.20;0.20;;;;;;;;;;4938931;29;20054;-92
2021/07/12 09:17:05;;;;;;;0.10;0.10;;;;;;;;;;4955259;28;20073;-96
2021/07/12 09:19:33;;;;;;;0.10;0.10;;;;;;;;;;4927223;29;20047;-95
2021/07/12 09:22:32;;;;;;;0.10;0.10;;;;;;;;;;4949324;28;20035;-95
2021/07/12 09:25:00;;;;;;;0.10;0.10;;;;;;;;;;4959522;28;20037;-95
2021/07/12 09:27:33;;;;;;;0.20;0.20;;;;;;;;;;4961380;28;20043;-96
2021/07/12 09:30:07;;;;;;;0.20;0.20;;;;;;;;;;4956205;28;20042;-95
2021/07/12 09:32:34;;;;;;;0.20;0.20;;;;;;;;;;4942459;28;20072;-96
2021/07/12 09:35:10;;;;;;;0.10;0.10;;;;;;;;;;4944086;28;20510;-95
2021/07/12 09:37:38;;;;;;;0.10;0.10;;;;;;;;;;4926135;28;20383;-89
2021/07/12 09:40:29;;;;;;;0.28;0.28;;;;;;;;;;4926030;28;20509;-89
2021/07/12 09:42:55;;;;;;;0.20;0.20;;;;;;;;;;4940184;28;20038;-90
2021/07/12 09:45:22;;;;;;;0.30;0.30;;;;;;;;;;4941244;28;20122;-90
2021/07/12 09:47:49;;;;;;;0.20;0.20;;;;;;;;;;4941002;28;20059;-89
2021/07/12 09:50:25;;;;;;;0.10;0.10;;;;;;;;;;4957096;28;20546;-88
2021/07/12 09:53:03;;;;;;;0.32;0.32;;;;;;;;;;4941250;28;20098;-89
2021/07/12 09:55:41;;;;;;;0.20;0.20;;;;;;;;;;4956530;28;20491;-91
2021/07/12 09:58:07;;;;;;;0.10;0.10;;;;;;;;;;4942312;28;20038;-90
2021/07/12 10:00:33;;;;;;;0.20;0.20;;;;;;;;;;4973980;28;20043;-89
2021/07/12 10:03:00;;;;;;;0.20;0.20;;;;;;;;;;4940967;28;20121;-90
2021/07/12 10:05:26;;;;;;;0.28;0.28;;;;;;;;;;4942780;28;20429;-90
2021/07/12 10:07:52;;;;;;;0.20;0.20;;;;;;;;;;4945195;28;20074;-91
2021/07/12 10:10:18;;;;;;;0.30;0.30;;;;;;;;;;4957261;28;20039;-89
2021/07/12 10:12:45;;;;;;;0.20;0.20;;;;;;;;;;4925235;28;20125;-89
2021/07/12 10:15:11;;;;;;;0.28;0.28;;;;;;;;;;4956623;28;20034;-89
2021/07/12 10:17:37;;;;;;;0.20;0.20;;;;;;;;;;4956328;28;20038;-88
2021/07/12 10:20:05;;;;;;;0.20;0.20;;;;;;;;;;4940799;28;20050;-90
2021/07/12 10:22:35;;;;;;;0.20;0.20;;;;;;;;;;4957904;28;20039;-91
2021/07/12 10:25:07;;;;;;;0.10;0.10;;;;;;;;;;4941083;28;20046;-91
2021/07/12 10:27:33;;;;;;;0.20;0.20;;;;;;;;;;4940795;28;20066;-91
2021/07/12 10:29:59;;;;;;;0.20;0.20;;;;;;;;;;4940736;28;20050;-91
2021/07/12 10:32:25;;;;;;;0.20;0.20;;;;;;;;;;4956486;28;20051;-90
2021/07/12 10:34:53;;;;;;;0.20;0.20;;;;;;;;;;4956507;28;20038;-89
2021/07/12 10:37:38;;;;;;;0.20;0.20;;;;;;;;;;4940464;28;20121;-89
2021/07/12 10:40:05;;;;;;;0.30;0.30;;;;;;;;;;4956035;28;20074;-88
2021/07/12 10:42:43;;;;;;;0.30;0.30;;;;;;;;;;4974250;28;20038;-89
2021/07/12 10:45:10;;;;;;;0.20;0.20;;;;;;;;;;4956501;28;20043;-88
2021/07/12 10:47:46;;;;;;;0.30;0.30;;;;;;;;;;4956377;28;20039;-88
2021/07/12 10:50:35;;;;;;;0.20;0.20;;;;;;;;;;4937063;29;20113;-90
2021/07/12 10:53:18;;;;;;;0.20;0.20;;;;;;;;;;4954124;29;20058;-86
2021/07/12 10:55:47;;;;;;;0.20;0.20;;;;;;;;;;4957719;28;20077;-86
2021/07/12 10:58:25;;;;;;;0.20;0.20;;;;;;;;;;4931199;28;20063;-87
2021/07/12 11:00:52;;;;;;;0.38;0.38;;;;;;;;;;4977381;28;20049;-87
2021/07/12 11:03:37;;;;;;;0.20;0.20;;;;;;;;;;4971184;28;20529;-87
2021/07/12 11:06:03;;;;;;;0.25;0.20;;;;;;;;;;4978041;28;20066;-87
2021/07/12 11:08:48;;;;;;;0.30;0.30;;;;;;;;;;4976119;28;20113;-87
2021/07/12 11:11:20;;;;;;;0.20;0.20;;;;;;;;;;4976230;28;20049;-87
2021/07/12 11:13:46;;;;;;;;;;;;;;;;;;4976694;28;20068;-88
2021/07/12 11:16:16;;;;;;;0.20;0.20;;;;;;;;;;4960322;28;19924;-86
2021/07/12 11:18:42;;;;;;;0.10;0.10;;;;;;;;;;4975685;28;20039;-87
2021/07/12 11:21:09;;;;;;;0.20;0.20;;;;;;;;;;4976190;28;20046;-91
2021/07/12 11:23:40;;;;;;;0.20;0.20;;;;;;;;;;4976106;28;20042;-91
2021/07/12 11:26:23;;;;;;;0.20;0.20;;;;;;;;;;4976108;28;20505;-89
2021/07/12 11:28:53;;;;;;;0.10;0.10;;;;;;;;;;4975563;28;20470;-90
2021/07/12 11:31:37;;;;;;;0.20;0.20;;;;;;;;;;4975263;28;20043;-89
2021/07/12 11:34:03;;;;;;;0.20;0.20;;;;;;;;;;4976600;28;20065;-89
2021/07/12 11:36:30;;;;;;;0.10;0.10;;;;;;;;;;4975468;28;20035;-91
2021/07/12 11:38:56;;;;;;;0.20;0.20;;;;;;;;;;4975263;28;20045;-89
2021/07/12 11:41:25;;;;;;;0.20;0.20;;;;;;;;;;4975370;28;20039;-92
2021/07/12 11:44:10;;;;;;;0.20;0.20;;;;;;;;;;4959071;28;20047;-90
2021/07/12 11:46:36;;;;;;;0.20;0.20;;;;;;;;;;4975387;28;20444;-89
2021/07/12 11:49:09;;;;;;;0.20;0.20;;;;;;;;;;4975375;28;20565;-89
2021/07/12 11:51:35;;;;;;;0.10;0.10;;;;;;;;;;4976147;28;20090;-91
2021/07/12 11:54:04;;;;;;;0.17;0.17;;;;;;;;;;4960215;28;20051;-90
2021/07/12 11:56:30;;;;;;;0.20;0.20;;;;;;;;;;4975391;28;20043;-91
2021/07/12 11:58:56;;;;;;;0.20;0.20;;;;;;;;;;4975154;28;20039;-90
2021/07/12 12:01:23;;;;;;;0.28;0.28;;;;;;;;;;4975297;28;20039;-93
2021/07/12 12:04:01;;;;;;;0.20;0.20;;;;;;;;;;4959726;28;20109;-91
2021/07/12 12:06:27;;;;;;;0.28;0.28;;;;;;;;;;4958810;28;20398;-96
2021/07/12 12:09:00;;;;;;;0.20;0.20;;;;;;;;;;4977727;28;20050;-95
2021/07/12 12:11:29;;;;;;;0.20;0.20;;;;;;;;;;4974845;28;20039;-90
2021/07/12 12:13:56;;;;;;;0.20;0.20;;;;;;;;;;4959145;28;20499;-93
2021/07/12 12:16:29;;;;;;;0.65;0.65;;;;;;;;;;4958794;28;20171;-92
2021/07/12 12:18:55;;;;;;;0.20;0.20;;;;;;;;;;4974997;28;20065;-92
2021/07/12 12:21:22;;;;;;;0.30;0.30;;;;;;;;;;4959152;28;20069;-90
2021/07/12 12:23:48;;;;;;;0.10;0.10;;;;;;;;;;4974678;28;20041;-90
2021/07/12 12:26:16;;;;;;;0.30;0.30;;;;;;;;;;4974995;28;20039;-89
2021/07/12 12:28:48;;;;;;;0.40;0.40;;;;;;;;;;4974596;28;20133;-89
2021/07/12 12:31:18;;;;;;;0.20;0.20;;;;;;;;;;4974548;28;20517;-89
2021/07/12 12:33:44;;;;;;;0.20;0.20;;;;;;;;;;4974257;28;20062;-91
2021/07/12 12:36:17;;;;;;;0.10;0.10;;;;;;;;;;4973423;28;20053;-90
2021/07/12 12:38:53;;;;;;;0.20;0.20;;;;;;;;;;4958397;28;20038;-91
2021/07/12 12:41:22;;;;;;;0.80;0.30;;;;;;;;;;4958495;28;20050;-90
2021/07/12 12:44:05;;;;;;;0.30;0.30;;;;;;;;;;4958925;28;20046;-91
2021/07/12 12:46:53;;;;;;;0.20;0.20;;;;;;;;;;4961069;28;20043;-89
2021/07/12 12:49:25;;;;;;;0.20;0.20;;;;;;;;;;4958494;28;20046;-89
2021/07/12 12:51:56;;;;;;;0.55;0.30;;;;;;;;;;4958148;28;20506;-89
2021/07/12 12:54:30;;;;;;;0.20;0.20;;;;;;;;;;4958426;28;20047;-93
2021/07/12 12:56:57;;;;;;;0.20;0.20;;;;;;;;;;4974905;28;20071;-89
2021/07/12 12:59:30;;;;;;;0.20;0.20;;;;;;;;;;4958328;28;20403;-90
2021/07/12 13:02:12;;;;;;;0.20;0.20;;;;;;;;;;4958199;28;20109;-92
2021/07/12 13:04:38;;;;;;;;;;;;;;;;;;4958677;28;20042;-90
2021/07/12 13:07:04;;;;;;;0.30;0.30;;;;;;;;;;4957840;28;20408;-90
2021/07/12 13:09:33;;;;;;;0.20;0.20;;;;;;;;;;4958023;28;20042;-91
2021/07/12 13:12:05;;;;;;;0.20;0.20;;;;;;;;;;4958464;28;20060;-90
2021/07/12 13:14:31;;;;;;;0.20;0.20;;;;;;;;;;4957737;28;20101;-89
2021/07/12 13:17:05;;;;;;;0.20;0.20;;;;;;;;;;4957677;28;20043;-90
2021/07/12 13:19:31;;;;;;;0.20;0.20;;;;;;;;;;4957875;28;20038;-89
2021/07/12 13:21:57;;;;;;;0.20;0.20;;;;;;;;;;4957698;28;20034;-90
2021/07/12 13:24:41;;;;;;;0.20;0.20;;;;;;;;;;4957604;28;20046;-90
2021/07/12 13:27:08;;;;;;;0.20;0.20;;;;;;;;;;4957090;28;20050;-90
2021/07/12 13:29:34;;;;;;;0.25;0.25;;;;;;;;;;4957327;28;20547;-87
2021/07/12 13:32:00;;;;;;;0.20;0.20;;;;;;;;;;4957205;28;20046;-91
2021/07/12 13:34:26;;;;;;;0.25;0.25;;;;;;;;;;4941640;28;20119;-91
2021/07/12 13:36:52;;;;;;;0.20;0.20;;;;;;;;;;4957301;28;20116;-91
2021/07/12 13:39:18;;;;;;;0.10;0.10;;;;;;;;;;4957335;28;20546;-90
2021/07/12 13:41:44;;;;;;;0.10;0.10;;;;;;;;;;4957772;28;20042;-90
2021/07/12 13:44:10;;;;;;;0.35;0.35;;;;;;;;;;4957260;28;20034;-90
2021/07/12 13:46:36;;;;;;;0.20;0.20;;;;;;;;;;4956952;28;20136;-88
2021/07/12 13:49:02;;;;;;;0.20;0.20;;;;;;;;;;4957072;28;20058;-89
2021/07/12 13:51:28;;;;;;;0.20;0.20;;;;;;;;;;4957008;28;20046;-89
2021/07/12 13:53:54;;;;;;;0.20;0.20;;;;;;;;;;4956927;28;20129;-91
2021/07/12 13:56:21;;;;;;;0.20;0.20;;;;;;;;;;4954411;28;20043;-89
2021/07/12 13:58:48;;;;;;;0.52;0.52;;;;;;;;;;4956903;28;20042;-91
2021/07/12 14:01:14;;;;;;;0.20;0.20;;;;;;;;;;4956952;28;20042;-88
2021/07/12 14:03:40;;;;;;;0.20;0.20;;;;;;;;;;4956624;28;20039;-89
2021/07/12 14:06:06;;;;;;;0.10;0.10;;;;;;;;;;4956764;28;20041;-89
2021/07/12 14:08:32;;;;;;;0.43;0.30;;;;;;;;;;4956526;28;20047;-89
2021/07/12 14:10:59;;;;;;;0.20;0.20;;;;;;;;;;4956636;28;20074;-88
2021/07/12 14:13:25;;;;;;;0.47;0.20;;;;;;;;;;4974093;28;20038;-93
2021/07/12 14:15:51;;;;;;;0.20;0.20;;;;;;;;;;4973380;28;20441;-89
2021/07/12 14:18:17;;;;;;;0.20;0.20;;;;;;;;;;4956526;28;20038;-90
2021/07/12 14:20:43;;;;;;;0.25;0.25;;;;;;;;;;4956830;28;20054;-89
2021/07/12 14:23:09;;;;;;;0.65;0.65;;;;;;;;;;4956640;28;20066;-89
2021/07/12 14:25:36;;;;;;;0.40;0.40;;;;;;;;;;4956570;28;20447;-89
2021/07/12 14:28:02;;;;;;;0.20;0.20;;;;;;;;;;4956208;28;20089;-89
2021/07/12 14:30:28;;;;;;;0.20;0.20;;;;;;;;;;4955983;28;20097;-89
2021/07/12 14:32:54;;;;;;;0.20;0.20;;;;;;;;;;4956470;28;20082;-90
2021/07/12 14:35:22;;;;;;;0.20;0.20;;;;;;;;;;4956494;28;20447;-89
2021/07/12 14:37:48;;;;;;;0.20;0.20;;;;;;;;;;4940495;28;20125;-90
2021/07/12 14:40:17;;;;;;;0.10;0.10;;;;;;;;;;4956399;28;20057;-89
2021/07/12 14:42:43;;;;;;;0.10;0.10;;;;;;;;;;4956160;28;20031;-90
2021/07/12 14:45:09;;;;;;;0.20;0.20;;;;;;;;;;4957235;28;20043;-91
2021/07/12 14:47:36;;;;;;;0.20;0.20;;;;;;;;;;4956383;28;20119;-90
2021/07/12 14:50:04;;;;;;;0.20;0.20;;;;;;;;;;4956684;28;20051;-93
2021/07/12 14:52:30;;;;;;;0.20;0.20;;;;;;;;;;4940685;28;20053;-89
2021/07/12 14:54:56;;;;;;;0.20;0.20;;;;;;;;;;4956386;28;20038;-91
2021/07/12 14:57:22;;;;;;;0.20;0.20;;;;;;;;;;4940541;28;20058;-92
2021/07/12 14:59:48;;;;;;;0.20;0.20;;;;;;;;;;4956746;28;20041;-90
2021/07/12 15:02:15;;;;;;;0.20;0.20;;;;;;;;;;4956411;28;20487;-90
2021/07/12 15:04:41;;;;;;;0.20;0.20;;;;;;;;;;4955728;28;20118;-89
2021/07/12 15:07:07;;;;;;;0.10;0.10;;;;;;;;;;4955804;28;20513;-89
2021/07/12 15:09:33;;;;;;;0.20;0.20;;;;;;;;;;4955905;28;20182;-89
2021/07/12 15:11:59;;;;;;;0.20;0.20;;;;;;;;;;4955720;28;20502;-88
2021/07/12 15:14:25;;;;;;;0.30;0.30;;;;;;;;;;4972903;28;20039;-90
2021/07/12 15:16:51;;;;;;;0.20;0.20;;;;;;;;;;4955809;28;20035;-90